Wednesday, April 25, 2018, 1:09 AM EDT
Back to Local

KPHD, New Philadelphia Clever Fld

Location: New Philadelphia, OH, United States Lat: 40.467
Local Time: 1:09 AM EDT ( 5:09 GMT) Lon: -81.417
Time Zone: US/Eastern Elev: 895 ft

Show me the last for .
Show Decoded

2018-04-25 00:53 METAR KPHD 250453Z AUTO 08003KT 10SM BKN037 OVC045 12/09 A2990 RMK AO2 SLP125
                 T01170094 401440094 =
2018-04-24 23:53 METAR KPHD 250353Z AUTO 12004KT 10SM BKN040 OVC050 12/10 A2991 RMK AO2 SLP131
                 T01170100 =
2018-04-24 22:53 METAR KPHD 250253Z AUTO 11007KT 10SM OVC060 12/10 A2993 RMK AO2 SLP137 60001
                 T01170100 58005 =
2018-04-24 21:48 METAR KPHD 250148Z AUTO 11008KT 10SM SCT014 SCT025 OVC050 12/10 A2994 RMK AO2
                 SLP142 T01170100 =
2018-04-24 21:47 METAR KPHD 250147Z AUTO 12009KT 10SM SCT014 SCT025 OVC050 12/10 A2994 RMK AO2 =
2018-04-24 21:34 METAR KPHD 250134Z AUTO 12008KT 10SM BKN014 OVC050 12/10 A2994 RMK AO2 T01170100
                 =
2018-04-24 21:24 METAR KPHD 250124Z AUTO 12008KT 10SM BKN016 OVC050 12/10 A2994 RMK AO2 T01170100
                 =
2018-04-24 21:00 METAR KPHD 250100Z AUTO 12007KT 10SM BKN014 BKN019 OVC050 12/11 A2994 RMK AO2
                 T01170106 =
2018-04-24 20:53 METAR KPHD 250053Z AUTO 11006KT 10SM SCT014 OVC050 12/11 A2995 RMK AO2
                 RAB2354E45 SLP142 P0001 T01170106 =
2018-04-24 19:53 METAR KPHD 242353Z AUTO 12008KT 10SM SCT016 OVC055 12/10 A2995 RMK AO2 RAE12
                 SLP141 P0000 60032 T01170100 10128 20111 58010 =
2018-04-24 19:27 METAR KPHD 242327Z AUTO 11010KT 10SM FEW013 BKN060 OVC070 12/10 A2995 RMK AO2
                 RAE12 P0000 T01170100 =
2018-04-24 18:53 METAR KPHD 242253Z AUTO 12009KT 7SM -RA SCT015 BKN019 OVC075 12/11 A2996 RMK AO2
                 SLP145 P0004 T01220106 =
2018-04-24 17:53 METAR KPHD 242153Z AUTO 11006KT 7SM -RA BKN016 BKN021 OVC025 12/11 A2997 RMK AO2
                 SLP149 P0006 T01220111 =
2018-04-24 17:24 METAR KPHD 242124Z AUTO 11007KT 5SM -RA BR SCT014 BKN019 OVC027 12/11 A2997 RMK
                 AO2 P0003 T01220111 =
2018-04-24 17:11 METAR KPHD 242111Z AUTO 11010G15KT 6SM -RA BR BKN014 BKN025 OVC042 13/11 A2997
                 RMK AO2 P0001 T01280111 =
2018-04-24 16:53 METAR KPHD 242053Z AUTO 09006KT 6SM -RA BR BKN015 BKN027 OVC036 12/11 A2998 RMK
                 AO2 SLP152 P0007 60022 T01220111 58021 =
2018-04-24 16:18 METAR KPHD 242018Z AUTO 08004KT 4SM -RA BR FEW009 BKN023 OVC035 12/11 A2999 RMK
                 AO2 P0003 T01220111 =
2018-04-24 15:53 METAR KPHD 241953Z AUTO 10006KT 4SM -RA BR FEW013 BKN025 OVC031 12/11 A3000 RMK
                 AO2 SLP160 P0009 T01220106 =
2018-04-24 15:31 METAR KPHD 241931Z AUTO 09005KT 4SM -RA BR FEW019 BKN026 OVC055 12/11 A3001 RMK
                 AO2 P0006 T01170106 =
2018-04-24 14:53 METAR KPHD 241853Z AUTO 13007KT 5SM -RA BR FEW014 SCT021 OVC055 12/11 A3003 RMK
                 AO2 SLP169 P0006 T01170106 =
2018-04-24 14:00 METAR KPHD 241800Z AUTO 10007KT 6SM -RA BR SCT014 OVC070 11/10 A3004 RMK AO2
                 P0001 T01110100 =
2018-04-24 13:53 METAR KPHD 241753Z AUTO 10006KT 6SM -RA BR BKN015 OVC065 11/10 A3004 RMK AO2
                 SLP174 P0009 60036 T01110100 10111 20100 58019 =
2018-04-24 13:40 METAR KPHD 241740Z AUTO 10006KT 5SM -RA BR BKN013 BKN019 OVC070 11/10 A3005 RMK
                 AO2 P0008 T01110100 =
2018-04-24 13:29 METAR KPHD 241729Z AUTO 10006KT 4SM -RA BR SCT014 BKN019 OVC055 11/10 A3005 RMK
                 AO2 P0007 T01110100 =
2018-04-24 13:13 METAR KPHD 241713Z AUTO 10007KT 4SM RA BR BKN013 BKN018 OVC050 11/09 A3006 RMK
                 AO2 P0003 T01110094 =
2018-04-24 12:53 METAR KPHD 241653Z AUTO 11009KT 6SM -RA BR BKN015 OVC060 11/09 A3006 RMK AO2
                 SLP181 P0006 T01110094 =
2018-04-24 11:53 METAR KPHD 241553Z AUTO 09009KT 6SM -RA BR BKN015 OVC021 11/09 A3008 RMK AO2
                 SLP188 P0003 T01110094 =
2018-04-24 11:23 METAR KPHD 241523Z AUTO 09007KT 8SM -RA BKN017 OVC055 11/09 A3009 RMK AO2 P0001
                 T01060094 =
2018-04-24 11:15 METAR KPHD 241515Z AUTO 08007KT 9SM -RA BKN014 BKN019 OVC050 11/09 A3009 RMK AO2
                 P0000 T01060089 =
2018-04-24 10:53 METAR KPHD 241453Z AUTO 09007KT 10SM -RA SCT014 BKN019 OVC075 11/09 A3010 RMK
                 AO2 SLP193 P0003 60018 T01060089 58010 =
2018-04-24 10:15 METAR KPHD 241415Z AUTO 09008KT 6SM -RA BR SCT017 SCT055 OVC070 10/08 A3011 RMK
                 AO2 P0002 T01000083 =
2018-04-24 09:53 METAR KPHD 241353Z AUTO 10010KT 6SM -RA BR BKN015 BKN060 OVC070 10/08 A3011 RMK
                 AO2 SLP199 P0011 T01000083 =
2018-04-24 09:39 METAR KPHD 241339Z AUTO 10006KT 5SM -RA BR BKN016 OVC075 10/08 A3012 RMK AO2
                 P0010 T01000083 =
2018-04-24 08:53 METAR KPHD 241253Z AUTO 10008KT 5SM -RA BR BKN070 OVC085 10/08 A3013 RMK AO2
                 SLP205 P0004 T01000078 =
2018-04-24 07:53 METAR KPHD 241153Z AUTO 11011G18KT 9SM -RA BKN060 OVC075 11/08 A3013 RMK AO2
                 SLP202 P0001 60001 70001 T01110078 10144 20111 53001 =
2018-04-24 06:53 METAR KPHD 241053Z AUTO 11010KT 9SM -RA OVC050 12/08 A3012 RMK AO2 RAB29 SLP200
                 P0000 T01170078 =
2018-04-24 05:53 METAR KPHD 240953Z AUTO 11010G18KT 10SM OVC060 13/07 A3012 RMK AO2 SLP199
                 T01330072 =
2018-04-24 04:53 METAR KPHD 240853Z AUTO 12010KT 10SM OVC065 13/07 A3013 RMK AO2 SLP199 T01330072
                 55010 =
2018-04-24 03:53 METAR KPHD 240753Z AUTO 11011KT 10SM OVC060 14/07 A3013 RMK AO2 SLP199 T01390072
                 =
2018-04-24 02:53 METAR KPHD 240653Z AUTO 11009KT 10SM OVC055 14/07 A3014 RMK AO2 SLP202 T01440072
                 =
2018-04-24 01:53 METAR KPHD 240553Z AUTO 13009KT 10SM OVC070 14/06 A3016 RMK AO2 SLP209 T01440056
                 10172 20133 56014 =

Support USWX by starting your Amazon purchase here.